Tiempo atmosférico en la estación meteorológica de Hinojosa Del Duque, Córdoba (540 m.)



Fecha
DESCASC
Temp. máxima en grados centígrados (hora)
DESCASC
Temp. mínima en grados centígrados (hora)
DESCASC
Temp. media en grados centígrados
DESCASC
Racha de viento máxima en m/sg (hora)
DESCASC
Velocidad máxima media en intervalos de 10 minutos(hora)
DESCASC
Precipitaciones diarias en mm
DESCASC
Precipitaciones de 00:00 a 06:00 en mm
DESCASC
Precipitaciones de 06:00 a 12:00 en mm
DESCASC
Precipitaciones de 12:00 a 18:00 en mm
DESCASC
Precipitaciones de 18:00 a 24:00 en mm
DESCASC
31-03-2020 14.8 (13:40) 7.5 (07:00) 11.2 10.28 (09:40) 6.67 (14:20) 19 5.4 6.1 1.6 5.9
30-03-2020 16.1 (14:20) 7.6 (08:20) 11.9 8.06 (19:40) 5.28 (19:50) 5.9 0 0 0 5.9
29-03-2020 18.3 (15:20) 1.8 (00:00) 10 5.83 (14:50) 3.61 (14:50) 0 0 0 0 0
28-03-2020 17.5 (16:40) -1 (-00:0) 8.3 5.56 (13:50) 2.78 (12:00) 0 0 0 0 0
27-03-2020 13.5 (13:50) 3 (00:00) 8.3 6.94 (15:30) 4.17 (17:40) 0 0 0 0 0
26-03-2020 19.3 (15:10) 7.7 (00:00) 13.5 11.39 (16:30) 7.78 (16:30) 3.4 3.4 0 0 0
25-03-2020 18.7 (17:00) 4.8 (00:00) 11.8 8.33 (23:30) 5.28 (23:40) 0 0 0 0 0
24-03-2020 17 (16:20) 7.4 (00:00) 12.2 13.06 (11:30) 8.33 (11:20) 0.1 0 0.1 0 0
23-03-2020 15.3 (14:10) 5.8 (00:00) 10.6 10 (20:20) 6.11 (20:20) 5.9 4.5 0.1 0.1 1.2
22-03-2020 13.9 (13:40) 2.9 (01:20) 8.4 6.67 (15:20) 3.61 (15:40) 2.4 0.1 0.4 0.4 1.5
21-03-2020 14.7 (14:00) 5 (00:00) 9.8 11.39 (04:40) 7.78 (04:40) 3.2 2.2 0.8 0.1 0.1
20-03-2020 17.4 (16:20) 9.2 (00:00) 13.3 7.78 (23:10) 5.28 (23:20) 0.3 0.2 0.1 0 0
19-03-2020 19.7 (16:50) 4.1 (00:00) 11.9 5.83 (13:30) 3.06 (11:00) 0 0 0 0 0
18-03-2020 21.7 (15:00) 8.1 (00:00) 14.9 8.89 (00:40) 5.83 (17:50) 0 0 0 0 0
17-03-2020 17.4 (16:50) 3.8 (00:00) 10.6 10.28 (16:00) 6.67 (17:30) 1.8 1.8 0 0 0
16-03-2020 11.1 (00:00) 2.4 (00:00) 6.8 11.67 (15:10) 8.33 (10:40) 4.5 0.5 0 0.8 3.2
15-03-2020 22.7 (16:40) 9.4 (00:00) 16.1 10.28 (18:30) 6.67 (18:40) 1.2 0 0 0.4 0.8
14-03-2020 22.6 (17:30) 6.9 (00:00) 14.8 4.72 (21:00) 2.22 (04:40) 0 0 0 0 0
13-03-2020 23.7 (15:50) 7.2 (08:10) 15.5 7.22 (17:10) 5.28 (18:10) 0 0 0 0 0
12-03-2020 26.8 (14:40) 9.3 (00:00) 18 8.33 (13:30) 5 (13:10) 0 0 0 0 0
11-03-2020 28.5 (15:50) 5.9 (00:00) 17.2 5.56 (14:10) 2.5 (05:10) 0 0 0 0 0
10-03-2020 24.3 (16:50) 3.8 (00:00) 14 5 (16:50) 2.78 (16:50) 0 0 0 0 0
09-03-2020 18.5 (16:10) 5.2 (00:00) 11.8 6.94 (12:10) 4.72 (12:50) 0 0 0 0 0
08-03-2020 20.1 (16:20) 0.9 (00:00) 10.5 7.78 (17:00) 5.83 (17:10) 0 0 0 0 0
07-03-2020 17 (16:10) 1 (00:00) 9 6.67 (14:10) 3.06 (12:40) 0 0 0 0 0
06-03-2020 14.9 (16:30) 4.9 (00:00) 9.9 13.89 (16:10) 10 (16:00) 0 0 0 0 0
05-03-2020 15.9 (15:40) 7.7 (00:00) 11.8 12.5 (13:30) 9.17 (13:10) 0.1 0 0 0.1 0
04-03-2020 18 (15:30) 8.3 (00:00) 13.2 10 (15:30) 6.67 (15:30) 0 0 0 0 0
03-03-2020 15.5 (16:20) 4.4 (00:00) 10 11.11 (12:00) 8.33 (11:50) 0 0 0 0 0
02-03-2020 15.5 (14:10) 6.2 (00:00) 10.8 16.39 (12:50) 11.94 (12:40) 3.8 3 0.2 0.6 0

Gráficas

Temp. máximas Temp. mínimas Temp. medias Precipitaciones Rachas de viento máximas Velocidades máximas media en intervalos de 10 minutos

Datos horarios

Fecha y hora oficial Temperatura (ºC) Velocidad del viento (km/h) Dirección del viento Racha (km/h) Dirección de racha Precipitación (mm) Presión (hPa) Tendencia (hPa) Humedad (%)
2020-03-31 23:00:00 9.6 6 Sudoeste 10 Sudoeste 0 945 2.6 92
2020-03-31 22:00:00 10.2 4 Sudoeste 7 Sudoeste 0 944.4 2.7 92
2020-03-31 21:00:00 10.3 3 Sur 9 Oeste 0.3 943.2 1.8 92
2020-03-31 20:00:00 11.3 5 Sudoeste 24 Sudoeste 1.5 942.4 1.4 88
2020-03-31 19:00:00 10.2 11 Sur 22 Sur 4.1 941.7 0.6 87
2020-03-31 18:00:00 12 6 Sur 20 Sur 0 941.4 -0.1 86
2020-03-31 17:00:00 12.5 15 Sur 26 Sur 0.4 941 0.2 85
2020-03-31 16:00:00 11.5 14 Sur 28 Sur 1 941.1 0.2 89
2020-03-31 15:00:00 11.7 18 Sur 36 Sur 0.2 941.5 0.6 85
2020-03-31 14:00:00 14.3 18 Sur 31 Sur 0 940.8 0.8 69
2020-03-31 13:00:00 13.5 14 Sur 30 Sudoeste 0 940.9 1.3 76
2020-03-31 12:00:00 13.3 14 Sudoeste 35 Sur 0 940.9 2.3 79
2020-03-31 11:00:00 12.2 21 Sur 34 Sur 0 940 1.6 84
2020-03-31 10:00:00 10.1 21 Sur 37 Sur 0.3 939.6 1.2 91
2020-03-31 09:00:00 9.7 21 Sur 31 Sur 0.5 938.6 -0.4 91
2020-03-31 08:00:00 8.3 10 Sudeste 16 Este 3.8 938.4 -0.8 97
2020-03-31 07:00:00 7.5 7 Este 14 Este 1.5 938.4 -1.9 95
2020-03-31 06:00:00 7.7 9 Sudeste 32 Sudeste 2.5 939 -1.8 93
2020-03-31 05:00:00 8.6 12 Sudeste 21 Sudeste 1.7 939.2 -2.5 96
2020-03-31 04:00:00 8.4 10 Sudeste 19 Este 0.9 940.3 -2.5 96
2020-03-31 03:00:00 8.2 12 Este 17 Este 0.2 940.8 -2.3 96
2020-03-31 02:00:00 8.2 10 Este 13 Este 0.1 941.7 -2.1 95
2020-03-31 01:00:00 8.2 6 Sudeste 17 Este 0 942.8 -1.2 95
2020-03-31 00:00:00 8.3 12 Este 17 Este 0 943.1 -1.5 96
2020-03-30 23:00:00 7.9 8 Este 13 Este 0 943.8 -1 94
2020-03-30 22:00:00 8.3 6 Este 11 Sur 0.2 944 -0.2 93
2020-03-30 21:00:00 9 6 Sudoeste 16 Oeste 0.9 944.6 0.1 92
2020-03-30 20:00:00 9 15 Oeste 29 Oeste 4.2 944.8 0.1 92
2020-03-30 19:00:00 10.2 13 Norte 22 Norte 0.6 944.2 -1.1 95
2020-03-30 18:00:00 11.7 10 Norte 16 Norte 0 944.5 -1.5 84
2020-03-30 17:00:00 13.5 8 Sudeste 15 Este 0 944.7 -2.2 74
2020-03-30 16:00:00 13.4 4 Sur 24 Sudoeste 0 945.3 -2.3 70
2020-03-30 15:00:00 15.3 5 Sur 17 Oeste 0 946 -2.3 54
2020-03-30 14:00:00 15.4 8 Sur 15 Sudoeste 0 946.9 -1.8 55
2020-03-30 13:00:00 15.4 3 Sur 13 Sudeste 0 947.6 -1.1 58
2020-03-30 12:00:00 13.4 4 Sur 11 Sudoeste 0 948.3 -0.3 70
2020-03-30 11:00:00 13.3 7 Sudoeste 12 Sudoeste 0 948.7 0.1 72
2020-03-30 10:00:00 11 9 Sudoeste 14 Sudoeste 0 948.7 0.3 77
2020-03-30 09:00:00 9 4 Sudoeste 11 Sudoeste 0 948.6 -0.2 86
2020-03-30 08:00:00 8.2 6 Sudoeste 9 Sudoeste 0 948.6 -0.9 85
2020-03-30 07:00:00 8.6 5 Sudoeste 10 Sudoeste 0 948.4 -1.7 84
2020-03-30 06:00:00 9 6 Sudoeste 9 Sudoeste 0 948.8 -1.8 82
2020-03-30 05:00:00 9.8 5 Sudoeste 10 Sudoeste 0 949.5 -1.6 80
2020-03-30 04:00:00 10.6 8 Sudoeste 12 Sudoeste 0 950.1 -1.5 78
2020-03-30 03:00:00 10.7 5 Oeste 11 Oeste 0 950.6 -1.5 78
2020-03-30 02:00:00 11.3 6 Oeste 14 Oeste 0 951.1 -1.1 75
2020-03-30 01:00:00 11 9 Sudoeste 14 Sudoeste 0 951.6 -0.3 74
2020-03-30 00:00:00 11.4 8 Sudoeste 13 Sudoeste 0 952.1 0.5 68
2020-03-29 23:00:00 13.2 6 Sudoeste 10 Sudoeste 0 952.2 0.5 63
2020-03-29 22:00:00 13.3 0 Calma 5 Norte 0 951.9 0.1 53
2020-03-29 21:00:00 14.5 4 Nordeste 10 Norte 0 951.6 -0.3 45
2020-03-29 20:00:00 15.8 8 Norte 14 Norte 0 951.7 -0.4 43
2020-03-29 19:00:00 17 8 Noroeste 19 Oeste 0 951.8 -1 38
2020-03-29 18:00:00 17.7 9 Noroeste 19 Oeste 0 951.9 -1.4 35
2020-03-29 17:00:00 17.5 10 Noroeste 20 Noroeste 0 952.1 -2.1 34
2020-03-29 16:00:00 17.9 4 Norte 17 Noroeste 0 952.8 -1.8 31
2020-03-29 15:00:00 17.6 12 Noroeste 21 Noroeste 0 953.3 -1.6 34
2020-03-29 14:00:00 16.4 7 Norte 15 Norte 0 954.2 -0.9 36
2020-03-29 13:00:00 15.6 4 Norte 12 Noroeste 0 954.6 -0.2 41
2020-03-29 12:00:00 13.7 4 Norte 9 Norte 0 954.9 0 52
2020-03-29 11:00:00 10.8 4 Noroeste 8 Oeste 0 955.1 0.8 60
2020-03-29 10:00:00 6.9 2 Norte 7 Noroeste 0 954.8 0.6 78
2020-03-29 09:00:00 2.4 5 Noroeste 7 Norte 0 954.9 0.9 87
2020-03-29 08:00:00 3.3 0 Calma 4 Sur 0 954.3 0.2 83
2020-03-29 07:00:00 3.7 4 Sur 13 Sudoeste 0 954.2 -0.1 80
2020-03-29 06:00:00 5.2 6 Este 9 Este 0 954 -0.6 76
2020-03-29 05:00:00 5.3 2 Este 4 Nordeste 0 954.1 -0.5 72
2020-03-29 03:00:00 7 4 Norte 6 Noroeste 0 954.6 0.3 73
2020-03-29 01:00:00 5.7 2 Oeste 10 Sudeste 0 954.6 0.4 77
2020-03-29 00:00:00 6.2 7 Sudeste 9 Sudeste 0 954.6 1.1 77
2020-03-28 23:00:00 8 6 Este 10 Este 0 954.3 1.5 70
2020-03-28 22:00:00 10.4 6 Nordeste 10 Este 0 954.2 1.8 60
2020-03-28 21:00:00 12.1 5 Nordeste 9 Nordeste 0 953.5 1.6 55
2020-03-28 20:00:00 13.3 4 Nordeste 10 Norte 0 952.8 1.1 54
2020-03-28 19:00:00 14.4 4 Nordeste 9 Este 0 952.4 0.6 49
2020-03-28 18:00:00 15.6 3 Este 14 Este 0 951.9 -0.3 43
2020-03-28 17:00:00 16.9 7 Nordeste 18 Este 0 951.7 -0.8 42
2020-03-28 16:00:00 16.8 5 Este 19 Sudeste 0 951.8 -1 43
2020-03-28 15:00:00 16.1 6 Este 17 Este 0 952.2 -0.7 45
2020-03-28 14:00:00 15.2 4 Sudeste 20 Sudeste 0 952.5 -0.3 46
2020-03-28 13:00:00 14.3 7 Este 17 Este 0 952.8 0.1 53
2020-03-28 12:00:00 11.7 10 Este 18 Nordeste 0 952.9 0.6 62
2020-03-28 11:00:00 10.2 6 Nordeste 16 Este 0 952.8 1.1 70
2020-03-28 10:00:00 7.9 5 Este 13 Este 0 952.7 1.6 81
2020-03-28 09:00:00 3.9 7 Este 10 Este 0 952.3 1.5 93
2020-03-28 08:00:00 0.9 0 Calma 5 Sur 0 951.7 1.3 97
2020-03-28 07:00:00 -0.7 3 Sur 6 Sur 0 951.1 1 96
2020-03-28 06:00:00 -1 3 Sur 4 Sur 0 950.8 0.6 93
2020-03-28 05:00:00 0.8 0 Calma 6 Nordeste 0 950.4 0.2 94
2020-03-28 04:00:00 1.4 4 Este 8 Este 0 950.1 0 94
2020-03-28 03:00:00 2.3 5 Nordeste 8 Nordeste 0 950.2 0.3 91
2020-03-28 02:00:00 1.9 5 Este 11 Este 0 950.2 0.4 90
2020-03-28 01:00:00 3.3 5 Nordeste 14 Nordeste 0 950.1 0.6 87
2020-03-28 00:00:00 3.2 6 Nordeste 12 Nordeste 0 949.9 1 88
2020-03-27 23:00:00 3.6 6 Este 15 Este 0 949.8 2 85
2020-03-27 22:00:00 4.6 8 Este 15 Este 0 949.5 2.2 83
2020-03-27 21:00:00 5.1 8 Este 13 Nordeste 0 948.9 2.3 83
2020-03-27 20:00:00 7.2 4 Este 22 Nordeste 0 947.8 1.7 77
2020-03-27 19:00:00 9 14 Nordeste 23 Nordeste 0 947.3 1.1 66
2020-03-27 18:00:00 9.4 11 Nordeste 23 Norte 0 946.6 0.7 68
2020-03-27 17:00:00 10.4 11 Nordeste 19 Nordeste 0 946.1 0.4 68
2020-03-27 16:00:00 10.1 9 Nordeste 25 Nordeste 0 946.2 0.3 68
2020-03-27 15:00:00 10.6 13 Norte 24 Norte 0 945.9 -0.3 70
2020-03-27 14:00:00 11.5 13 Norte 21 Norte 0 945.7 0.1 73
2020-03-27 13:00:00 10.7 6 Oeste 13 Oeste 0 945.9 1 76
2020-03-27 12:00:00 8.9 7 Noroeste 13 Noroeste 0 946.2 1.5 82
2020-03-27 11:00:00 7.7 10 Noroeste 15 Oeste 0 945.6 0.9 90
2020-03-27 10:00:00 7.4 7 Oeste 13 Sudoeste 0 944.9 0.8 90
2020-03-27 09:00:00 6.9 5 Noroeste 7 Oeste 0 944.7 0.8 93
2020-03-27 08:00:00 4.3 4 Oeste 12 Sudoeste 0 944.7 1.4 97
2020-03-27 07:00:00 4.6 7 Sudoeste 13 Sudoeste 0 944.1 0.4 96
2020-03-27 06:00:00 4.3 4 Sudoeste 8 Sudoeste 0 943.9 -0.5 94
2020-03-27 05:00:00 5 6 Sudoeste 9 Sudoeste 0 943.3 -1.6 94
2020-03-27 04:00:00 5.4 7 Sudoeste 9 Sudoeste 0 943.7 -1.5 93
2020-03-27 03:00:00 5.8 4 Sur 8 Sudoeste 0 944.4 -1.1 92
2020-03-27 02:00:00 7.7 9 Oeste 15 Oeste 0 944.9 -0.4 88
2020-03-27 01:00:00 8.9 9 Oeste 23 Oeste 0 945.2 -0.3 83
2020-03-27 00:00:00 9.8 14 Oeste 21 Oeste 0 945.5 0.1 79
2020-03-26 23:00:00 9.8 11 Oeste 21 Oeste 0 945.3 0.4 76
2020-03-26 22:00:00 11.4 10 Oeste 21 Noroeste 0 945.5 0.7 67
2020-03-26 21:00:00 13.6 16 Oeste 23 Oeste 0 945.4 1 59
2020-03-26 20:00:00 13.6 13 Oeste 23 Noroeste 0 944.9 0.5 59
2020-03-26 19:00:00 16.3 19 Noroeste 33 Noroeste 0 944.8 -0.1 44
2020-03-26 18:00:00 17.6 24 Noroeste 40 Noroeste 0 944.4 -0.9 36
2020-03-26 17:00:00 18.3 28 Noroeste 41 Noroeste 0 944.4 -1.3 31
2020-03-26 16:00:00 18.8 24 Noroeste 39 Noroeste 0 944.9 -1.5 30
2020-03-26 15:00:00 18.9 22 Noroeste 39 Noroeste 0 945.3 -1.6 31
2020-03-26 14:00:00 18 23 Noroeste 32 Noroeste 0 945.7 -2 37
2020-03-26 13:00:00 17.3 19 Noroeste 33 Noroeste 0 946.4 -1.2 49
2020-03-26 12:00:00 15.5 20 Noroeste 26 Noroeste 0 946.9 -0.3 54
2020-03-26 11:00:00 14.1 13 Noroeste 27 Oeste 0 947.7 0.2 64
2020-03-26 10:00:00 12.9 15 Noroeste 23 Noroeste 0 947.6 0.4 77
2020-03-26 09:00:00 10.9 13 Oeste 18 Oeste 0 947.2 0.2 84
2020-03-26 08:00:00 8 5 Sudoeste 11 Oeste 0 947.5 0.4 94
2020-03-26 07:00:00 8.9 4 Sudoeste 17 Sudoeste 0 947.2 -0.8 94
2020-03-26 06:00:00 9.2 4 Sudoeste 10 Oeste 0 947 -1.7 95
2020-03-26 05:00:00 9.9 6 Sudoeste 10 Sudoeste 0.1 947.1 -2.6 94
2020-03-26 04:00:00 10.6 5 Sudoeste 10 Sudoeste 0 948 -1.9 94
2020-03-26 03:00:00 9.7 3 Sudoeste 21 Sudoeste 0.6 948.7 -1.5 90
2020-03-26 02:00:00 9.8 6 Sudoeste 11 Sur 0 949.7 -0.6 91
2020-03-26 01:00:00 9.7 6 Sudeste 40 Norte 2.7 949.9 -0.3 93
2020-03-26 00:00:00 11.8 13 Norte 30 Noroeste 0 950.2 0.2 75
2020-03-25 23:00:00 13.2 18 Noroeste 27 Noroeste 0 950.3 0.5 64
2020-03-25 22:00:00 11.4 10 Oeste 14 Oeste 0 950.2 0.5 66
2020-03-25 21:00:00 12.4 6 Oeste 8 Oeste 0 950 0.2 63
2020-03-25 20:00:00 13.6 8 Noroeste 13 Noroeste 0 949.8 -0.3 65
2020-03-25 19:00:00 16.1 10 Noroeste 21 Noroeste 0 949.7 -0.9 45
2020-03-25 18:00:00 17.1 8 Noroeste 21 Noroeste 0 949.8 -1 39
2020-03-25 17:00:00 18.6 11 Noroeste 21 Noroeste 0 950.1 -1.6 36
2020-03-25 16:00:00 18.2 10 Norte 21 Norte 0 950.6 -1.6 38
2020-03-25 15:00:00 17.6 11 Noroeste 24 Noroeste 0 950.8 -1.8 40
2020-03-25 14:00:00 16.1 11 Noroeste 20 Noroeste 0 951.7 -0.8 44
2020-03-25 13:00:00 16.5 4 Oeste 14 Noroeste 0 952.2 -0.1 42
2020-03-25 12:00:00 14.8 4 Norte 11 Sudoeste 0 952.6 0.6 51
2020-03-25 11:00:00 13.7 3 Oeste 10 Noroeste 0 952.5 0.5 59
2020-03-25 10:00:00 11.5 0 Calma 7 Este 0 952.3 1 69
2020-03-25 09:00:00 8.2 3 Norte 7 Nordeste 0 952 0.9 83
2020-03-25 08:00:00 5.4 4 Noroeste 9 Noroeste 0 952 1 90
2020-03-25 07:00:00 6 4 Noroeste 6 Noroeste 0 951.3 0.5 91
2020-03-25 06:00:00 6.7 3 Norte 9 Noroeste 0 951.1 -0.1 90
2020-03-25 05:00:00 7 7 Oeste 9 Oeste 0 951 -0.3 92
2020-03-25 04:00:00 7.2 3 Nordeste 10 Nordeste 0 950.8 -0.3 89
2020-03-25 03:00:00 6 5 Noroeste 11 Norte 0 951.2 0.2 94
2020-03-25 02:00:00 7.1 2 Este 6 Norte 0 951.3 0.4 89
2020-03-25 01:00:00 6.7 2 Oeste 13 Este 0 951.1 0.6 90
2020-03-25 00:00:00 8.2 6 Este 18 Este 0 951 1.2 87
2020-03-24 23:00:00 9.5 12 Este 20 Este 0 950.9 2 82
2020-03-24 22:00:00 9.2 10 Este 19 Este 0 950.5 2.3 82
2020-03-24 21:00:00 10 13 Nordeste 26 Este 0 949.8 2.3 78
2020-03-24 20:00:00 11.1 15 Este 31 Este 0 948.9 1.9 73
2020-03-24 19:00:00 13.6 20 Este 35 Este 0 948.2 1.3 66
2020-03-24 18:00:00 15.4 21 Nordeste 40 Nordeste 0 947.5 0.2 60
2020-03-24 17:00:00 16.3 22 Nordeste 40 Este 0 947 -0.4 58
2020-03-24 16:00:00 16.3 22 Este 36 Este 0 946.9 -0.9 59
2020-03-24 15:00:00 15.6 19 Este 35 Nordeste 0 947.3 -0.5 62
2020-03-24 14:00:00 15.3 21 Este 35 Este 0 947.4 -0.3 59
2020-03-24 13:00:00 15.1 22 Este 37 Nordeste 0 947.8 0.2 56
2020-03-24 12:00:00 14 21 Este 47 Este 0.1 947.8 0.6 64
2020-03-24 11:00:00 13.5 25 Este 42 Este 0 947.7 0.4 63
2020-03-24 10:00:00 11.6 21 Este 35 Este 0 947.6 0.3 72
2020-03-24 09:00:00 10 17 Este 26 Nordeste 0 947.2 0 83
2020-03-24 08:00:00 7.8 10 Nordeste 17 Nordeste 0 947.3 0 92
2020-03-24 07:00:00 7.8 9 Nordeste 19 Nordeste 0 947.3 0.1 91
2020-03-24 06:00:00 7.8 12 Nordeste 22 Nordeste 0 947.2 -0.7 91
2020-03-24 05:00:00 7.9 9 Nordeste 17 Nordeste 0 947.3 -1 91
2020-03-24 04:00:00 8.3 8 Nordeste 16 Nordeste 0 947.2 -1.4 92
2020-03-24 03:00:00 8.1 6 Nordeste 14 Nordeste 0 947.9 -1.2 95
2020-03-24 02:00:00 8.7 6 Nordeste 13 Este 0 948.3 -0.6 92
2020-03-24 01:00:00 9.1 6 Nordeste 11 Este 0 948.6 -0.4 93
2020-03-24 00:00:00 9.1 9 Este 13 Este 0 949.1 0.8 93
2020-03-23 23:00:00 9.2 7 Este 21 Este 0.2 948.9 1.2 92
2020-03-23 22:00:00 9.3 7 Este 12 Sudeste 0.3 949 1.8 91
2020-03-23 21:00:00 9.6 7 Sur 36 Sudeste 0.7 948.3 1.4 89
2020-03-23 20:00:00 12 14 Nordeste 25 Nordeste 0 947.7 0.9 65
2020-03-23 19:00:00 13.9 5 Nordeste 13 Nordeste 0 947.2 -0.1 59
2020-03-23 18:00:00 15.1 6 Este 17 Nordeste 0 946.9 -1 51
2020-03-23 17:00:00 14.9 6 Este 22 Este 0 946.8 -1.8 53
2020-03-23 16:00:00 14.4 8 Nordeste 20 Nordeste 0 947.3 -1.7 54
2020-03-23 15:00:00 13.5 8 Este 25 Nordeste 0.1 947.9 -1.5 65
2020-03-23 14:00:00 15 10 Este 23 Este 0 948.6 -1.1 55
2020-03-23 13:00:00 12.4 13 Este 22 Este 0 949 -0.7 72
2020-03-23 12:00:00 13.6 9 Este 19 Este 0 949.4 0.1 64
2020-03-23 11:00:00 11.5 8 Este 21 Este 0 949.7 0.7 72
2020-03-23 10:00:00 9.6 10 Este 15 Este 0 949.7 1 88
2020-03-23 09:00:00 7.7 6 Nordeste 13 Nordeste 0.1 949.3 1 97
2020-03-23 08:00:00 6.2 4 Este 11 Este 0 949 0.9 97
2020-03-23 07:00:00 6.6 3 Norte 7 Norte 0 948.7 0.8 97
2020-03-23 06:00:00 6.1 2 Sudeste 8 Este 0 948.3 -0.1 97
2020-03-23 05:00:00 6.1 4 Sudeste 6 Sudeste 0 948.1 -0.5 96
2020-03-23 04:00:00 7.3 4 Sur 6 Sudeste 0 947.9 -0.7 95
2020-03-23 03:00:00 7.4 0 Calma 13 Este 3.5 948.4 -0.4 94
2020-03-23 02:00:00 8.1 6 Este 10 Este 0.8 948.6 0 95
2020-03-23 01:00:00 8.3 5 Sudeste 7 Sudeste 0.2 948.6 -0.1 94
2020-03-23 00:00:00 8.3 5 Este 7 Este 0.3 948.8 0.6 94
2020-03-22 23:00:00 8.2 0 Calma 13 Este 0.7 948.6 1.1 92
2020-03-22 22:00:00 8.5 7 Este 13 Este 0.5 948.7 1.8 90
2020-03-22 21:00:00 9.2 4 Sudeste 7 Este 0 948.2 1.7 80
2020-03-22 20:00:00 9.7 0 Calma 5 Sudeste 0 947.5 1 74
2020-03-22 19:00:00 12.2 4 Sudeste 7 Nordeste 0 946.9 0.4 66
2020-03-22 18:00:00 11.5 5 Este 18 Sudeste 0 946.5 0 67
2020-03-22 17:00:00 12.6 12 Este 17 Sudeste 0 946.5 -0.3 63
2020-03-22 16:00:00 11.9 10 Sudeste 24 Sudeste 0 946.5 -0.8 67
2020-03-22 15:00:00 12.9 5 Norte 17 Norte 0.4 946.5 -1 58
2020-03-22 14:00:00 13.5 5 Nordeste 16 Norte 0 946.8 -0.9 53
2020-03-22 13:00:00 12.5 6 Nordeste 15 Norte 0 947.3 -0.1 57
2020-03-22 12:00:00 11.9 3 Este 12 Este 0 947.5 0.4 61
2020-03-22 11:00:00 10.1 5 Nordeste 10 Este 0 947.7 0.8 76
2020-03-22 10:00:00 8 0 Calma 5 Sudeste 0.1 947.4 1 92
2020-03-22 09:00:00 6 0 Calma 5 Este 0.1 947.1 1 96
2020-03-22 08:00:00 5.2 3 Este 9 Norte 0.1 946.9 0.7 97
2020-03-22 07:00:00 4.6 6 Este 8 Este 0.1 946.4 0.2 97
2020-03-22 06:00:00 3.8 4 Este 7 Este 0 946.1 -0.3 97
2020-03-22 05:00:00 3.4 6 Este 10 Este 0 946.2 -0.3 96
2020-03-22 04:00:00 3.3 6 Este 10 Este 0 946.2 -0.6 96
2020-03-22 03:00:00 3.1 5 Nordeste 10 Nordeste 0.1 946.4 -0.7 96
2020-03-22 02:00:00 3.4 8 Sudeste 12 Sur 0 946.5 -0.3 96
2020-03-22 01:00:00 3.4 7 Sudeste 9 Sudeste 0 946.8 0.1 95
2020-03-22 00:00:00 5.1 3 Sudeste 18 Sur 0 947.1 0.8 93
2020-03-21 23:00:00 6.1 12 Sudeste 18 Sur 0 946.8 0.7 92
2020-03-21 22:00:00 6.2 11 Sudeste 16 Sudeste 0 946.7 1.2 90
2020-03-21 21:00:00 6.8 6 Sudeste 16 Sur 0.1 946.3 0.6 90
2020-03-21 20:00:00 7.7 12 Sur 23 Sur 0 946.1 0.3 83
2020-03-21 19:00:00 8.9 14 Sudeste 28 Sudeste 0 945.5 -0.6 83
2020-03-21 18:00:00 9.6 18 Sur 30 Sur 0.1 945.7 -0.5 80
2020-03-21 17:00:00 10.8 17 Sur 37 Sur 0 945.8 -1.4 72
2020-03-21 16:00:00 10.7 26 Sudoeste 39 Sudoeste 0 946.1 -1.9 74
2020-03-21 15:00:00 13.6 13 Sur 21 Sudoeste 0 946.2 -2.1 53
2020-03-21 14:00:00 14.7 14 Sur 28 Sur 0 947.2 -1.3 51
2020-03-21 13:00:00 12.1 12 Sur 27 Sur 0 948 -0.6 56
2020-03-21 12:00:00 13.3 13 Sur 28 Sur 0 948.3 -0.1 61
2020-03-21 11:00:00 10.4 13 Sur 21 Sudoeste 0 948.5 0.7 73
2020-03-21 10:00:00 9.4 11 Sudoeste 17 Sur 0 948.6 0.9 83
2020-03-21 09:00:00 8.3 5 Sur 10 Sudoeste 0.1 948.4 1.1 91
2020-03-21 08:00:00 7.2 6 Sudeste 14 Sudeste 0.1 947.8 0.3 93
2020-03-21 07:00:00 7 10 Este 14 Sudeste 0.6 947.7 0.8 92
2020-03-21 06:00:00 7.3 5 Sudoeste 32 Sudoeste 1.3 947.3 0.4 89
2020-03-21 05:00:00 8.2 22 Sudoeste 41 Sudoeste 0.1 947.5 -0.1 88
2020-03-21 04:00:00 10.3 22 Sur 37 Sur 0.8 946.9 -1.4 88
2020-03-21 03:00:00 11.1 16 Sudeste 24 Sudeste 0 946.9 -1.7 88
2020-03-21 02:00:00 11 13 Sudeste 21 Sur 0 947.6 -0.6 87
2020-03-21 01:00:00 11.6 14 Sur 26 Sur 0 948.3 0.3 82
2020-03-21 00:00:00 12.1 13 Sur 28 Sur 0 948.6 0.5 76
2020-03-20 23:00:00 11.1 12 Sudeste 18 Sudeste 0 948.2 0.1 83
2020-03-20 22:00:00 11 7 Sudeste 14 Sudeste 0 948 -0.2 84
2020-03-20 21:00:00 11.4 5 Sudeste 11 Sudeste 0 948.1 -0.1 81
2020-03-20 20:00:00 13.4 10 Sudeste 13 Sudeste 0 948.1 -0.5 74
2020-03-20 19:00:00 15.2 10 Sudeste 18 Sudeste 0 948.2 -0.8 65
2020-03-20 18:00:00 15.7 14 Sur 23 Sudeste 0 948.2 -1.3 61
2020-03-20 17:00:00 16.9 14 Sur 24 Sudeste 0 948.6 -1.4 58
2020-03-20 16:00:00 16.4 13 Sudeste 24 Sur 0 949 -1.5 61
2020-03-20 15:00:00 16.8 13 Sur 21 Sudeste 0 949.5 -1.5 60
2020-03-20 14:00:00 16.7 13 Sudeste 22 Sudeste 0 950 -1.4 57
2020-03-20 13:00:00 16.2 11 Sudeste 20 Sudeste 0 950.5 -0.8 61
2020-03-20 12:00:00 15.1 12 Sur 19 Sur 0 951 0.3 67
2020-03-20 11:00:00 13.7 13 Sudeste 24 Sudeste 0.1 951.4 1.2 74
2020-03-20 10:00:00 13.3 13 Sudeste 19 Sudeste 0 951.3 1.2 79
2020-03-20 09:00:00 11.1 8 Sudeste 13 Sudeste 0 950.7 0.6 90
2020-03-20 08:00:00 9.2 6 Este 13 Este 0 950.2 0 94
2020-03-20 07:00:00 9.9 9 Este 12 Este 0 950.1 0 93
2020-03-20 06:00:00 10.1 6 Sudeste 12 Este 0 950.1 -0.6 91
2020-03-20 05:00:00 10.5 10 Este 13 Este 0.2 950.2 -0.7 91
2020-03-20 04:00:00 10.8 6 Sudeste 14 Sur 0 950.1 -0.9 88
2020-03-20 03:00:00 11.1 5 Sudeste 9 Sur 0 950.7 -0.3 86
2020-03-20 02:00:00 11.4 5 Sudeste 8 Sur 0 950.9 0 84
2020-03-20 01:00:00 11.8 5 Sudeste 8 Sudeste 0 951 0.3 79
2020-03-20 00:00:00 11.7 4 Sur 7 Sur 0 951 0 83
2020-03-19 23:00:00 11.9 5 Sudeste 8 Este 0 950.9 -0.1 82
2020-03-19 22:00:00 13.3 3 Este 8 Este 0 950.7 -0.2 76
2020-03-19 21:00:00 13.5 0 Calma 3 Noroeste 0 951 0.1 75
2020-03-19 20:00:00 14.9 2 Norte 5 Norte 0 951 0 68
2020-03-19 19:00:00 16.5 3 Sur 11 Sudeste 0 950.9 -0.6 60
2020-03-19 18:00:00 17.8 8 Sudeste 17 Sudeste 0 950.9 -1.2 54
2020-03-19 17:00:00 19.6 9 Sudeste 18 Sudeste 0 951 -2 45
2020-03-19 16:00:00 18 6 Nordeste 15 Nordeste 0 951.5 -2.5 52
2020-03-19 15:00:00 17.4 9 Nordeste 17 Este 0 952.1 -2.4 54
2020-03-19 14:00:00 17.6 8 Este 21 Este 0 953 -2.1 55
2020-03-19 13:00:00 17 8 Nordeste 17 Este 0 954 -1.2 55
2020-03-19 12:00:00 15.4 9 Este 19 Este 0 954.5 -0.8 60
2020-03-19 11:00:00 13.6 11 Este 18 Este 0 955.1 -0.2 65
2020-03-19 10:00:00 10.4 6 Este 13 Este 0 955.2 -0.2 76
2020-03-19 09:00:00 7.6 0 Calma 6 Sur 0 955.3 0.3 90
2020-03-19 08:00:00 4.2 5 Sur 8 Este 0 955.3 0.1 91
2020-03-19 07:00:00 5 0 Calma 9 Norte 0 955.4 0.3 90
2020-03-19 06:00:00 5.4 4 Noroeste 5 Este 0 955 -0.5 94
2020-03-19 05:00:00 7.2 0 Calma 8 Nordeste 0 955.2 -0.5 88
2020-03-19 04:00:00 8.5 6 Este 10 Este 0 955.1 -0.5 82
2020-03-19 03:00:00 8 5 Este 11 Este 0 955.5 -0.4 84
2020-03-19 02:00:00 8.6 3 Este 13 Este 0 955.7 -0.5 81
2020-03-19 01:00:00 9 10 Este 14 Este 0 955.6 -0.2 82
2020-03-19 00:00:00 10.1 5 Este 8 Este 0 955.9 0.1 79
2020-03-18 23:00:00 10.4 2 Sudoeste 21 Este 0 956.2 0.6 78
2020-03-18 22:00:00 12.6 15 Este 21 Este 0 955.8 0.8 71
2020-03-18 21:00:00 12.7 10 Nordeste 18 Nordeste 0 955.8 1.1 70
2020-03-18 20:00:00 13.9 12 Nordeste 26 Nordeste 0 955.6 1 65
2020-03-18 19:00:00 15.7 16 Nordeste 30 Nordeste 0 955 0 62
2020-03-18 18:00:00 18 19 Nordeste 32 Nordeste 0 954.7 -0.5 53
2020-03-18 17:00:00 21.3 14 Este 29 Este 0 954.6 -1.4 38
2020-03-18 16:00:00 21.2 15 Este 28 Este 0 955 -1.9 41
2020-03-18 15:00:00 21.7 13 Este 28 Este 0 955.2 -2.1 36
2020-03-18 14:00:00 20.2 13 Este 28 Este 0 956 -1.2 42
2020-03-18 13:00:00 18.8 9 Nordeste 20 Nordeste 0 956.9 -0.4 46
2020-03-18 12:00:00 16.9 8 Este 27 Este 0 957.3 0 54
2020-03-18 11:00:00 15.2 20 Este 28 Este 0 957.2 0.4 59
2020-03-18 10:00:00 13.4 13 Este 22 Este 0 957.3 0.9 68
2020-03-18 09:00:00 10.3 8 Este 14 Nordeste 0 957.3 0.8 82
2020-03-18 08:00:00 8.3 8 Este 19 Este 0 956.8 0.2 89
2020-03-18 07:00:00 9.3 14 Este 20 Este 0 956.4 -0.2 84
2020-03-18 06:00:00 9.5 12 Este 21 Este 0 956.5 -0.1 83
2020-03-18 05:00:00 10.2 14 Este 26 Este 0 956.6 0.2 80
2020-03-18 04:00:00 10.6 14 Este 22 Este 0 956.6 0.3 80
2020-03-18 03:00:00 11.3 12 Este 24 Este 0 956.6 0.1 81
2020-03-18 02:00:00 11.5 15 Este 30 Este 0 956.4 -1 83
2020-03-18 01:00:00 12.1 19 Este 32 Este 0 956.3 -1 83
2020-03-18 00:00:00 13 18 Este 32 Este 0 956.5 -0.6 82
2020-03-17 23:00:00 11.6 12 Este 21 Nordeste 0 957.4 0.6 83
2020-03-17 22:00:00 11.3 11 Nordeste 16 Nordeste 0 957.3 1 71
2020-03-17 21:00:00 11.6 4 Nordeste 13 Este 0 957.1 1.3 69
2020-03-17 20:00:00 13.9 13 Este 26 Sudeste 0 956.8 1.2 58
2020-03-17 19:00:00 15.7 15 Este 23 Este 0 956.3 0.9 41
2020-03-17 18:00:00 16.1 13 Este 35 Este 0 955.8 0 37
2020-03-17 17:00:00 17 16 Este 33 Sudeste 0 955.6 -0.7 31
2020-03-17 16:00:00 16.4 16 Este 37 Este 0 955.4 -1.1 35
2020-03-17 15:00:00 16 13 Este 31 Nordeste 0 955.8 -0.6 40
2020-03-17 14:00:00 15.8 17 Este 32 Este 0 956.3 0.1 43
2020-03-17 13:00:00 14.5 19 Este 29 Este 0 956.5 0.7 44
2020-03-17 12:00:00 13.5 17 Sudeste 25 Sudeste 0 956.4 1.2 50
2020-03-17 11:00:00 11.3 19 Sudeste 32 Sudeste 0 956.2 1.8 58
2020-03-17 10:00:00 8.8 5 Este 11 Este 0 955.8 2.1 79
2020-03-17 09:00:00 5.9 6 Este 13 Este 0 955.2 2.3 93
2020-03-17 08:00:00 4.6 6 Este 9 Este 0 954.4 1.9 95
2020-03-17 07:00:00 4.2 5 Este 9 Sudeste 0 953.7 1.6 94
2020-03-17 06:00:00 4.5 7 Sudeste 14 Sudeste 0.1 952.9 0.7 94
2020-03-17 05:00:00 4.3 10 Sudeste 28 Este 0.7 952.5 0.4 93
2020-03-17 04:00:00 4.9 10 Este 18 Este 0.8 952.1 0.3 95
2020-03-17 03:00:00 4.9 12 Este 19 Este 0.2 952.2 0.2 94
2020-03-17 02:00:00 4.4 9 Este 12 Este 0 952.1 0.6 96
2020-03-17 01:00:00 4 8 Este 13 Este 0 951.8 0.9 95
2020-03-17 00:00:00 4.2 8 Este 12 Este 0 952 1.5 93
2020-03-16 23:00:00 4.3 5 Este 9 Este 0 951.5 1.7 94
2020-03-16 22:00:00 4.3 0 Calma 6 Sudeste 0 950.9 1.4 95
2020-03-16 21:00:00 3.3 4 Sudeste 6 Oeste 0 950.5 2.3 93
2020-03-16 20:00:00 4.1 4 Oeste 12 Norte 0.3 949.8 1.2 91
2020-03-16 19:00:00 4.6 8 Norte 31 Norte 2.9 949.5 1.1 94
2020-03-16 18:00:00 6.9 7 Este 13 Este 0.4 948.2 -0.5 86
2020-03-16 17:00:00 6.2 4 Este 37 Oeste 0.4 948.6 -0.7 81
2020-03-16 16:00:00 8.1 25 Oeste 42 Oeste 0 948.4 -1.2 68
2020-03-16 15:00:00 8.6 20 Oeste 37 Oeste 0 948.7 -1.1 64
2020-03-16 14:00:00 7.9 19 Oeste 29 Oeste 0 949.3 -0.8 60
2020-03-16 13:00:00 7.7 20 Oeste 28 Oeste 0 949.6 -0.5 62
2020-03-16 12:00:00 6.4 19 Noroeste 36 Noroeste 0 949.8 -0.5 69
2020-03-16 11:00:00 6.9 24 Oeste 40 Noroeste 0 950.1 0.4 66
2020-03-16 10:00:00 5.9 24 Oeste 32 Oeste 0 950.1 0.6 70
2020-03-16 09:00:00 4.5 19 Oeste 28 Oeste 0 950.3 1.3 78
2020-03-16 08:00:00 2.9 19 Oeste 31 Sudoeste 0 949.7 0.8 83
2020-03-16 07:00:00 2.9 16 Sudoeste 31 Sudoeste 0 949.5 0.5 82
2020-03-16 06:00:00 3.2 19 Sudoeste 32 Sudoeste 0 949 -0.5 79
2020-03-16 05:00:00 3.5 21 Sudoeste 33 Sudoeste 0 948.9 -0.8 78
2020-03-16 04:00:00 4.2 22 Sudoeste 36 Sudoeste 0 949 -0.6 77
2020-03-16 03:00:00 5.8 26 Sudoeste 39 Sudoeste 0.3 949.5 0.2 74
2020-03-16 02:00:00 7.3 22 Sudoeste 36 Sudoeste 0.1 949.7 0 76
2020-03-16 01:00:00 9.4 27 Sudoeste 35 Sudoeste 0.1 949.6 -0.1 79
2020-03-16 00:00:00 11.1 18 Sudoeste 31 Sudoeste 0.1 949.3 0.1 73
2020-03-15 23:00:00 12 21 Sudoeste 29 Sudoeste 0.2 949.7 1.1 72
2020-03-15 22:00:00 13.3 18 Oeste 30 Noroeste 0 949.7 1.8 80
2020-03-15 21:00:00 13.8 7 Noroeste 23 Sudoeste 0 949.2 1.4 83
2020-03-15 20:00:00 14.6 13 Sudoeste 32 Sudoeste 0.5 948.6 0.2 77
2020-03-15 19:00:00 17.7 19 Sudoeste 37 Sur 0 947.9 -0.8 62
2020-03-15 18:00:00 18.4 24 Sur 36 Sudeste 0.4 947.8 -1.7 63
2020-03-15 17:00:00 21.4 21 Sur 33 Sur 0 948.4 -2.3 48
2020-03-15 16:00:00 22.6 19 Sudoeste 30 Sudoeste 0 948.7 -2.9 40
2020-03-15 15:00:00 22.1 15 Sudoeste 27 Sudoeste 0 949.5 -2.6 42
2020-03-15 14:00:00 22 14 Sudoeste 30 Sudoeste 0 950.7 -1.8 44
2020-03-15 13:00:00 21.2 8 Sudoeste 21 Sur 0 951.6 -1.1 48
2020-03-15 12:00:00 20.5 9 Sudoeste 19 Sudoeste 0 952.1 -0.6 53
2020-03-15 11:00:00 18.7 9 Sur 15 Sur 0 952.5 0.4 58
2020-03-15 10:00:00 15.5 7 Sur 12 Sudoeste 0 952.7 0.7 70
2020-03-15 09:00:00 11.2 4 Sur 8 Sur 0 952.7 0.9 90
2020-03-15 08:00:00 9.8 7 Sur 8 Sur 0 952.1 0.1 91
2020-03-15 07:00:00 9.7 4 Sur 7 Sur 0 952 -0.3 92
2020-03-15 06:00:00 9.8 6 Sur 7 Sur 0 951.8 -0.9 92
2020-03-15 05:00:00 10.1 5 Sudeste 8 Sur 0 952 -1.2 92
2020-03-15 04:00:00 10.4 6 Sur 9 Sudeste 0 952.3 -1.1 91
2020-03-15 03:00:00 11 8 Sudeste 9 Sudeste 0 952.7 -1 87
2020-03-15 02:00:00 13.2 3 Oeste 7 Oeste 0 953.2 -0.6 84
2020-03-15 01:00:00 13 5 Sudoeste 8 Sudoeste 0 953.4 -0.5 84
2020-03-15 00:00:00 13.5 4 Sudoeste 8 Sudoeste 0 953.7 0.2 80
2020-03-14 23:00:00 14.6 5 Sudoeste 9 Sudoeste 0 953.8 0.6 76
2020-03-14 22:00:00 15.8 6 Sudoeste 11 Sudoeste 0 953.9 0.8 73
2020-03-14 21:00:00 15.9 8 Sur 17 Sur 0 953.5 0.6 64
2020-03-14 20:00:00 17.4 8 Norte 9 Norte 0 953.2 0.2 57
2020-03-14 19:00:00 19.4 8 Norte 13 Norte 0 953.1 -0.2 51
2020-03-14 18:00:00 21.8 6 Norte 15 Noroeste 0 952.9 -1.2 40
2020-03-14 17:00:00 21.8 6 Norte 15 Norte 0 953 -1.8 43
2020-03-14 16:00:00 21.9 5 Nordeste 14 Este 0 953.3 -2.3 45
2020-03-14 15:00:00 22 6 Noroeste 15 Noroeste 0 954.1 -1.7 48
2020-03-14 14:00:00 20.8 3 Norte 12 Norte 0 954.8 -1.3 54
2020-03-14 13:00:00 19.5 4 Norte 12 Sudeste 0 955.6 -0.4 58
2020-03-14 12:00:00 18.9 2 Oeste 10 Sudeste 0 955.8 0.1 66
2020-03-14 11:00:00 16.6 0 Calma 6 Noroeste 0 956.1 1.1 72
2020-03-14 10:00:00 13.6 0 Calma 7 Noroeste 0 956 1.4 87
2020-03-14 09:00:00 9.3 2 Noroeste 8 Norte 0 955.7 1.2 94
2020-03-14 08:00:00 7.6 4 Sudeste 9 Sur 0 955 1 97
2020-03-14 07:00:00 7.7 5 Sur 6 Sur 0 954.6 0.3 96
2020-03-14 06:00:00 8.7 0 Calma 4 Sur 0 954.5 -0.1 96
2020-03-14 05:00:00 8.5 4 Sur 9 Sur 0 954 -0.5 95
2020-03-14 04:00:00 9.3 0 Calma 6 Sudeste 0 954.3 -0.5 94
2020-03-14 03:00:00 9.9 0 Calma 7 Oeste 0 954.6 -0.1 91
2020-03-14 02:00:00 10 5 Sudoeste 9 Oeste 0 954.5 -0.2 90
2020-03-14 01:00:00 10.2 8 Oeste 10 Oeste 0 954.8 0.4 90
2020-03-14 00:00:00 10.9 7 Oeste 9 Oeste 0 954.7 0.8 84
2020-03-13 23:00:00 12.5 5 Sudoeste 6 Oeste 0 954.7 1.4 80
2020-03-13 22:00:00 13.5 5 Oeste 11 Noroeste 0 954.4 1.6 78
2020-03-13 21:00:00 14.2 4 Oeste 10 Oeste 0 953.9 1.5 70
2020-03-13 20:00:00 15.1 5 Oeste 18 Noroeste 0 953.3 1.1 68
2020-03-13 19:00:00 18.7 14 Noroeste 23 Noroeste 0 952.8 0.6 60
2020-03-13 18:00:00 21.2 16 Noroeste 26 Noroeste 0 952.4 -0.1 52
2020-03-13 17:00:00 22.1 14 Noroeste 23 Oeste 0 952.2 -1.1 49
2020-03-13 16:00:00 22.2 13 Oeste 24 Oeste 0 952.2 -1.7 42
2020-03-13 15:00:00 22.6 5 Oeste 23 Oeste 0 952.5 -2.1 42
2020-03-13 14:00:00 22.7 4 Sudoeste 21 Oeste 0 953.3 -1.4 42
2020-03-13 13:00:00 21.5 7 Sudoeste 17 Oeste 0 953.9 -0.6 44
2020-03-13 12:00:00 20.6 4 Oeste 14 Oeste 0 954.6 0.7 50
2020-03-13 11:00:00 18.3 0 Calma 9 Noroeste 0 954.7 1 60
2020-03-13 10:00:00 16.3 0 Calma 2 Sur 0 954.5 1 68
2020-03-13 09:00:00 10.2 2 Sur 5 Sudeste 0 953.9 0.6 87
2020-03-13 08:00:00 7.3 4 Sudeste 5 Este 0 953.7 0.5 89
2020-03-13 07:00:00 8.6 2 Sudeste 8 Sudeste 0 953.5 0.1 90
2020-03-13 06:00:00 9.1 3 Sur 8 Sur 0 953.3 -0.5 87
2020-03-13 05:00:00 9.7 8 Sur 9 Sur 0 953.2 -1 84
2020-03-13 04:00:00 9.8 6 Sur 7 Sudoeste 0 953.4 -1 83
2020-03-13 03:00:00 10.5 4 Sudoeste 8 Sur 0 953.8 -0.9 80
2020-03-13 02:00:00 11 5 Sudoeste 8 Sudoeste 0 954.2 -0.4 77
2020-03-13 01:00:00 12.5 7 Sudoeste 11 Oeste 0 954.4 0 71
2020-03-13 00:00:00 13.3 6 Oeste 14 Oeste 0 954.7 0.7 68
2020-03-12 23:00:00 14.2 8 Sudoeste 12 Sudoeste 0 954.6 0.7 64
2020-03-12 22:00:00 15.1 10 Sudoeste 12 Sudoeste 0 954.4 0.7 58
2020-03-12 21:00:00 15.8 6 Sudoeste 12 Sudoeste 0 954 0.6 50
2020-03-12 20:00:00 18.2 10 Sudoeste 15 Sudoeste 0 953.9 0.7 42
2020-03-12 19:00:00 21.1 8 Sur 17 Sudoeste 0 953.7 0.2 36
2020-03-12 18:00:00 24.4 13 Sudoeste 23 Sur 0 953.4 -0.9 27
2020-03-12 17:00:00 26.1 12 Sudoeste 22 Sudoeste 0 953.2 -2 27
2020-03-12 16:00:00 26.3 14 Sudoeste 24 Sur 0 953.5 -2.6 23
2020-03-12 15:00:00 26.7 14 Sudoeste 26 Sudoeste 0 954.3 -2.1 23
2020-03-12 14:00:00 26.1 14 Sur 30 Sudoeste 0 955.2 -1.2 26
2020-03-12 13:00:00 25.8 14 Sur 29 Sur 0 956.1 -0.1 29
2020-03-12 12:00:00 24.4 14 Sudoeste 21 Sudoeste 0 956.4 0.4 27
2020-03-12 11:00:00 22.8 9 Sur 18 Sur 0 956.4 0.6 32
2020-03-12 10:00:00 17.5 6 Este 11 Este 0 956.2 0.9 58
2020-03-12 09:00:00 13.1 5 Este 7 Sudeste 0 956 0.9 71
2020-03-12 08:00:00 10.1 0 Calma 12 Norte 0 955.8 0.7 69
2020-03-12 07:00:00 13 6 Sur 12 Sudeste 0 955.3 -0.2 59
2020-03-12 06:00:00 13 8 Sudeste 14 Sudeste 0 955.1 -1.2 60
2020-03-12 05:00:00 12.4 9 Sudeste 12 Sudeste 0 955.1 -1.6 61
2020-03-12 04:00:00 11.3 9 Sudeste 13 Sudeste 0 955.5 -1.8 65
2020-03-12 03:00:00 12.9 9 Sudeste 14 Sudeste 0 956.3 -1.3 61
2020-03-12 02:00:00 11.5 11 Sudeste 13 Sudeste 0 956.7 -1.1 66
2020-03-12 01:00:00 14.3 8 Sudeste 10 Sur 0 957.3 -0.5 55
2020-03-12 00:00:00 14.2 8 Sur 10 Sudeste 0 957.6 0.1 57
2020-03-11 23:00:00 14.3 9 Sudeste 11 Sudeste 0 957.8 0.2 60
2020-03-11 22:00:00 15.6 8 Sudeste 10 Sudeste 0 957.8 0.3 55
2020-03-11 21:00:00 17.9 6 Sudeste 8 Sur 0 957.5 0 47
2020-03-11 20:00:00 20.5 4 Sudoeste 9 Sur 0 957.6 -0.1 39
2020-03-11 19:00:00 23.3 9 Sur 10 Sur 0 957.5 -0.5 34
2020-03-11 18:00:00 26.6 6 Sur 12 Sur 0 957.5 -0.8 32
2020-03-11 17:00:00 26.9 7 Sudeste 12 Sur 0 957.7 -1.4 27
2020-03-11 16:00:00 27.9 6 Sur 13 Sur 0 958 -1.8 23
2020-03-11 15:00:00 27.3 5 Noroeste 20 Sudoeste 0 958.3 -2 30
2020-03-11 14:00:00 27.7 5 Sudeste 11 Este 0 959.1 -1.3 30
2020-03-11 13:00:00 24.9 0 Calma 10 Nordeste 0 959.8 -0.7 38
2020-03-11 12:00:00 22.2 3 Nordeste 9 Este 0 960.3 0 46
2020-03-11 11:00:00 19.1 3 Este 8 Sudeste 0 960.4 0.5 54
2020-03-11 10:00:00 15.5 4 Este 6 Este 0 960.5 0.9 63
2020-03-11 09:00:00 10.6 0 Calma 6 Sudeste 0 960.3 0.6 76
2020-03-11 08:00:00 6.9 0 Calma 8 Este 0 959.9 0.3 83
2020-03-11 07:00:00 8.3 3 Este 5 Este 0 959.6 -0.3 77
2020-03-11 06:00:00 9.5 3 Sudeste 10 Sur 0 959.7 -0.8 70
2020-03-11 05:00:00 8.9 8 Sur 10 Sur 0 959.6 -1.4 73
2020-03-11 04:00:00 8.3 5 Sur 8 Sudeste 0 959.9 -1.6 76
2020-03-11 03:00:00 9.3 5 Sudeste 7 Sudeste 0 960.5 -1.1 72
2020-03-11 02:00:00 12.1 3 Nordeste 5 Sudoeste 0 961 -0.6 62
2020-03-11 01:00:00 12.6 0 Calma 4 Sudoeste 0 961.5 0 60
2020-03-11 00:00:00 12.2 0 Calma 8 Sur 0 961.6 0.4 62
2020-03-10 23:00:00 13.3 0 Calma 4 Este 0 961.6 0.3 60
2020-03-10 22:00:00 14 0 Calma 5 Sudoeste 0 961.5 0.2 59
2020-03-10 21:00:00 17 4 Este 7 Este 0 961.2 0 49
2020-03-10 20:00:00 19 0 Calma 4 Noroeste 0 961.3 0.1 43
2020-03-10 19:00:00 21.8 2 Nordeste 10 Norte 0 961.3 -0.4 36
2020-03-10 18:00:00 23.3 6 Norte 14 Noroeste 0 961.2 -0.9 33
2020-03-10 17:00:00 23.5 9 Noroeste 18 Noroeste 0 961.2 -1.6 30
2020-03-10 16:00:00 23.3 4 Norte 17 Norte 0 961.7 -1.6 33
2020-03-10 15:00:00 23.4 4 Este 12 Nordeste 0 962.1 -1.3 33
2020-03-10 14:00:00 22.1 4 Este 11 Este 0 962.8 -0.7 32
2020-03-10 13:00:00 20.7 7 Sudeste 15 Este 0 963.3 0.1 34
2020-03-10 12:00:00 18.7 8 Este 14 Este 0 963.4 0.8 36
2020-03-10 11:00:00 16.3 3 Este 10 Sudeste 0 963.5 1 45
2020-03-10 10:00:00 12.6 0 Calma 6 Oeste 0 963.2 1.1 59
2020-03-10 09:00:00 8.2 0 Calma 4 Sudoeste 0 962.6 0.8 75
2020-03-10 08:00:00 4.5 0 Calma 6 Sudeste 0 962.5 0.8 80
2020-03-10 07:00:00 4.9 0 Calma 10 Norte 0 962.1 0.4 76
2020-03-10 06:00:00 6.4 9 Norte 10 Norte 0 961.8 -0.2 71
2020-03-10 05:00:00 8.5 4 Noroeste 9 Oeste 0 961.7 -0.3 60
2020-03-10 04:00:00 6.8 6 Sudoeste 9 Sudoeste 0 961.7 -0.4 69
2020-03-10 03:00:00 6.2 5 Sudoeste 9 Sudeste 0 962 0 73
2020-03-10 02:00:00 7 5 Sudeste 7 Sudeste 0 962 -0.2 73
2020-03-10 01:00:00 9.5 6 Noroeste 8 Noroeste 0 962.1 0.2 59
2020-03-10 00:00:00 7.9 3 Sudoeste 8 Sur 0 962 0.6 71
2020-03-09 23:00:00 9 0 Calma 7 Oeste 0 962.2 1.3 65
2020-03-09 22:00:00 9.7 5 Oeste 9 Noroeste 0 961.9 1.4 63
2020-03-09 21:00:00 9.6 9 Noroeste 14 Noroeste 0 961.4 0.8 66
2020-03-09 20:00:00 11.5 11 Noroeste 14 Norte 0 960.9 -0.2 60
2020-03-09 19:00:00 15.4 10 Noroeste 16 Noroeste 0 960.5 -0.6 47
2020-03-09 18:00:00 17.5 12 Noroeste 22 Noroeste 0 960.6 -0.9 42
2020-03-09 17:00:00 18 15 Noroeste 22 Noroeste 0 961.1 -0.9 40
2020-03-09 16:00:00 18.3 8 Noroeste 17 Oeste 0 961.1 -1.9 36
2020-03-09 15:00:00 17.9 7 Noroeste 21 Noroeste 0 961.5 -1.3 36
2020-03-09 14:00:00 16.4 7 Norte 20 Noroeste 0 962 -0.9 38
2020-03-09 13:00:00 15.8 16 Noroeste 25 Norte 0 963 0.4 42
2020-03-09 12:00:00 13.9 12 Noroeste 19 Noroeste 0 962.8 0.6 50
2020-03-09 11:00:00 11.7 9 Noroeste 15 Noroeste 0 962.9 1.4 70
2020-03-09 10:00:00 9.9 6 Oeste 11 Oeste 0 962.6 1 80
2020-03-09 09:00:00 8.1 7 Oeste 15 Oeste 0 962.2 0.7 88
2020-03-09 08:00:00 6.1 9 Oeste 15 Oeste 0 961.5 0 93
2020-03-09 07:00:00 6.4 9 Oeste 17 Oeste 0 961.6 0.3 95
2020-03-09 06:00:00 5.7 10 Oeste 14 Oeste 0 961.5 -0.7 92
2020-03-09 05:00:00 7.1 10 Oeste 12 Oeste 0 961.5 -0.9 90
2020-03-09 04:00:00 7.9 7 Sudoeste 13 Sudoeste 0 961.3 -0.8 88
2020-03-09 03:00:00 8.2 6 Sudoeste 16 Oeste 0 962.2 0 82
2020-03-09 02:00:00 8.1 7 Oeste 13 Oeste 0 962.4 -0.1 82
2020-03-09 01:00:00 7.2 0 Calma 18 Noroeste 0 962.1 0.1 80
2020-03-09 00:00:00 9.2 12 Oeste 19 Noroeste 0 962.2 0.3 78
2020-03-08 23:00:00 10.1 4 Noroeste 18 Oeste 0 962.5 1.6 71
2020-03-08 22:00:00 11.1 13 Oeste 19 Oeste 0 962 0.7 62
2020-03-08 21:00:00 11.1 10 Noroeste 14 Noroeste 0 961.9 1.1 57
2020-03-08 20:00:00 13.4 3 Norte 15 Noroeste 0 960.9 0.2 52
2020-03-08 19:00:00 15.2 9 Norte 22 Noroeste 0 961.3 0.6 47
2020-03-08 18:00:00 17.6 14 Noroeste 27 Noroeste 0 960.8 0 37
2020-03-08 17:00:00 19.2 19 Noroeste 28 Noroeste 0 960.7 -1.2 24
2020-03-08 16:00:00 19.6 11 Noroeste 22 Noroeste 0 960.7 -1.7 28
2020-03-08 15:00:00 18.3 7 Noroeste 22 Noroeste 0 960.8 -2 33
2020-03-08 14:00:00 17.6 10 Noroeste 18 Oeste 0 961.9 -0.5 36
2020-03-08 13:00:00 16.5 3 Noroeste 17 Noroeste 0 962.4 -0.3 40
2020-03-08 12:00:00 14.8 4 Noroeste 12 Noroeste 0 962.8 0.7 47
2020-03-08 11:00:00 13.8 0 Calma 6 Noroeste 0 962.4 0.6 52
2020-03-08 10:00:00 9.9 3 Noroeste 7 Noroeste 0 962.7 1.5 67
2020-03-08 09:00:00 5.1 3 Sur 4 Noroeste 0 962.1 1.1 79
2020-03-08 08:00:00 2.2 0 Calma 8 Sur 0 961.8 0.5 87
2020-03-08 07:00:00 0.9 5 Sur 6 Sudeste 0 961.2 -0.1 88
2020-03-08 06:00:00 1.5 4 Sur 11 Norte 0 961 -0.9 87
2020-03-08 05:00:00 2.5 10 Norte 11 Norte 0 961.3 -0.6 83
2020-03-08 04:00:00 3.4 4 Oeste 5 Oeste 0 961.3 -0.9 79
2020-03-08 03:00:00 4.4 4 Sudoeste 8 Sur 0 961.9 -0.6 79
2020-03-08 02:00:00 4.4 5 Sur 9 Sudeste 0 961.9 -0.5 78
2020-03-08 01:00:00 5.5 5 Sudoeste 6 Sudoeste 0 962.2 0.1 73
2020-03-08 00:00:00 5.5 5 Sur 10 Sudeste 0 962.5 0.6 75
2020-03-07 23:00:00 7.1 0 Calma 7 Sudeste 0 962.4 0.9 69
2020-03-07 22:00:00 8 4 Noroeste 9 Noroeste 0 962.1 1.2 65
2020-03-07 21:00:00 8.7 5 Oeste 11 Noroeste 0 961.9 1.5 64
2020-03-07 20:00:00 9.5 9 Noroeste 11 Noroeste 0 961.5 1.1 64
2020-03-07 19:00:00 13.9 6 Norte 13 Norte 0 960.9 0.1 52
2020-03-07 18:00:00 15.6 9 Norte 16 Norte 0 960.4 -0.8 39
2020-03-07 17:00:00 16.6 6 Norte 21 Norte 0 960.4 -1.6 36
2020-03-07 16:00:00 16.8 8 Norte 18 Nordeste 0 960.8 -1.8 35
2020-03-07 15:00:00 15.9 9 Nordeste 24 Nordeste 0 961.2 -1.6 35
2020-03-07 14:00:00 15.1 5 Norte 15 Nordeste 0 962 -0.8 38
2020-03-07 13:00:00 14.3 3 Este 19 Este 0 962.6 0 41
2020-03-07 12:00:00 13 6 Nordeste 15 Este 0 962.8 0.3 43
2020-03-07 11:00:00 11.5 6 Este 12 Este 0 962.8 0.9 50
2020-03-07 10:00:00 8.4 3 Oeste 7 Sudoeste 0 962.6 1 60
2020-03-07 09:00:00 4.8 5 Oeste 7 Oeste 0 962.5 1.2 78
2020-03-07 08:00:00 1.3 0 Calma 3 Noroeste 0 961.9 1.1 85
2020-03-07 07:00:00 1.7 3 Oeste 6 Noroeste 0 961.6 0.9 80
2020-03-07 06:00:00 1.9 5 Oeste 8 Noroeste 0 961.3 0 81
2020-03-07 05:00:00 1.5 9 Oeste 11 Oeste 0 960.8 -0.1 80
2020-03-07 04:00:00 1.9 6 Oeste 9 Noroeste 0 960.7 0.3 79
2020-03-07 03:00:00 2.6 8 Noroeste 10 Noroeste 0 961.3 1.2 77
2020-03-07 02:00:00 3.3 7 Noroeste 14 Noroeste 0 960.9 1.1 75
2020-03-07 01:00:00 3.8 10 Oeste 15 Noroeste 0 960.4 1.4 71
2020-03-07 00:00:00 5.7 13 Noroeste 19 Noroeste 0 960.1 1.5 68
2020-03-06 23:00:00 7.3 0 Calma 30 Noroeste 0 959.8 1.6 61
2020-03-06 22:00:00 8.4 23 Noroeste 27 Noroeste 0 959 1.6 59
2020-03-06 21:00:00 9.8 18 Oeste 25 Oeste 0 958.6 1.8 51
2020-03-06 20:00:00 9.8 20 Noroeste 28 Noroeste 0 958.2 1.6 53
2020-03-06 19:00:00 11.5 22 Noroeste 40 Noroeste 0 957.4 0.8 48
2020-03-06 18:00:00 13.7 31 Noroeste 42 Noroeste 0 956.8 -0.6 41
2020-03-06 17:00:00 14.6 28 Noroeste 50 Noroeste 0 956.6 -1.2 39
2020-03-06 16:00:00 14.5 36 Noroeste 49 Noroeste 0 956.6 -1.5 39
2020-03-06 15:00:00 13.9 24 Noroeste 45 Noroeste 0 957.4 -0.4 44
2020-03-06 14:00:00 13.8 23 Noroeste 46 Noroeste 0 957.8 0.6 44
2020-03-06 13:00:00 13.4 32 Noroeste 49 Noroeste 0 958.1 0.8 44
2020-03-06 12:00:00 12.4 33 Noroeste 46 Noroeste 0 957.8 1.3 51
2020-03-06 11:00:00 11.1 24 Noroeste 41 Oeste 0 957.2 1.3 69
2020-03-06 10:00:00 9.3 28 Noroeste 42 Oeste 0 957.3 1.5 80
2020-03-06 09:00:00 8.6 24 Oeste 34 Noroeste 0 956.5 0.7 87
2020-03-06 08:00:00 6.4 12 Noroeste 24 Oeste 0 955.9 0.1 93
2020-03-06 07:00:00 5.4 5 Oeste 24 Oeste 0 955.8 -0.4 95
2020-03-06 06:00:00 5.5 17 Oeste 27 Oeste 0 955.8 -0.4 92
2020-03-06 05:00:00 5.3 15 Oeste 22 Oeste 0 955.8 -0.5 92
2020-03-06 04:00:00 5.4 11 Noroeste 29 Oeste 0 956.2 -0.3 92
2020-03-06 03:00:00 6 22 Oeste 32 Oeste 0 956.2 0.3 90
2020-03-06 02:00:00 7.1 24 Oeste 33 Oeste 0 956.3 0.6 85
2020-03-06 01:00:00 7.2 21 Oeste 26 Oeste 0 956.5 1.2 84
2020-03-06 00:00:00 7.8 16 Oeste 27 Oeste 0 955.9 1.2 80
2020-03-05 23:00:00 8.7 20 Oeste 28 Oeste 0 955.7 1.6 76
2020-03-05 22:00:00 9.5 19 Oeste 32 Oeste 0 955.3 1.6 76
2020-03-05 21:00:00 10.6 20 Oeste 35 Oeste 0 954.7 1.7 71
2020-03-05 20:00:00 11.3 17 Oeste 34 Oeste 0 954.1 1.4 64
2020-03-05 19:00:00 13.4 25 Oeste 42 Noroeste 0 953.7 0.6 57
2020-03-05 18:00:00 13.7 27 Oeste 42 Oeste 0 953 0.3 53
2020-03-05 17:00:00 15 32 Oeste 45 Oeste 0 952.7 -0.8 48
2020-03-05 16:00:00 15.6 28 Oeste 44 Oeste 0 953.1 -0.7 48
2020-03-05 15:00:00 15.4 31 Oeste 43 Oeste 0 952.7 -1.1 51
2020-03-05 14:00:00 14.9 30 Oeste 45 Oeste 0.1 953.5 -0.2 51
2020-03-05 13:00:00 13.1 29 Oeste 44 Oeste 0 953.8 0 80
2020-03-05 12:00:00 11.7 18 Sudoeste 37 Oeste 0 953.8 0.2 90
2020-03-05 11:00:00 13.4 26 Oeste 38 Oeste 0 953.7 0.4 77
2020-03-05 10:00:00 13.4 17 Oeste 30 Oeste 0 953.8 0.4 77
2020-03-05 09:00:00 10.7 14 Sudoeste 22 Sudoeste 0 953.6 0.1 91
2020-03-05 08:00:00 9.5 13 Sudoeste 19 Sudoeste 0 953.3 -0.7 96
2020-03-05 07:00:00 9.6 7 Sudoeste 16 Sudoeste 0 953.4 -1.2 95
2020-03-05 06:00:00 9.3 6 Sudoeste 13 Sudoeste 0 953.5 -1.8 91
2020-03-05 05:00:00 9.7 7 Sudoeste 13 Oeste 0 954 -1.9 87
2020-03-05 04:00:00 9.7 6 Oeste 14 Sudoeste 0 954.6 -1.8 85
2020-03-05 03:00:00 10.3 9 Sudoeste 13 Sudoeste 0 955.3 -1.8 84
2020-03-05 02:00:00 10 7 Sudoeste 11 Sudoeste 0 955.9 -1.5 84
2020-03-05 01:00:00 8.8 7 Sudoeste 11 Sudoeste 0 956.4 -1 85
2020-03-05 00:00:00 8.6 4 Sudoeste 9 Oeste 0 957.1 -0.4 85
2020-03-04 23:00:00 8.6 6 Sudoeste 10 Sudoeste 0 957.4 -0.1 83
2020-03-04 22:00:00 9.4 7 Sudoeste 12 Sudoeste 0 957.4 -0.1 81
2020-03-04 21:00:00 10.4 6 Sudoeste 10 Sudoeste 0 957.5 0 78
2020-03-04 20:00:00 12 6 Sudoeste 18 Oeste 0 957.5 0 71
2020-03-04 19:00:00 14.4 13 Oeste 20 Oeste 0 957.5 -0.2 64
2020-03-04 18:00:00 15.2 15 Noroeste 26 Noroeste 0 957.5 -0.6 60
2020-03-04 17:00:00 15.7 21 Noroeste 27 Noroeste 0 957.5 -1.7 59
2020-03-04 16:00:00 16.6 19 Noroeste 36 Oeste 0 957.7 -1.9 53
2020-03-04 15:00:00 17.4 23 Noroeste 33 Oeste 0 958.1 -2 51
2020-03-04 14:00:00 16 19 Oeste 31 Oeste 0 959.2 -0.9 60
2020-03-04 13:00:00 15.3 18 Oeste 27 Oeste 0 959.6 -0.2 64
2020-03-04 12:00:00 14.7 19 Noroeste 28 Noroeste 0 960.1 0.6 67
2020-03-04 11:00:00 14.4 17 Oeste 25 Oeste 0 960.1 0.9 70
2020-03-04 10:00:00 13.4 18 Oeste 24 Oeste 0 959.8 0.6 77
2020-03-04 09:00:00 11.1 10 Oeste 15 Oeste 0 959.5 0.3 90
2020-03-04 08:00:00 11.2 8 Oeste 19 Oeste 0 959.2 0.2 89
2020-03-04 07:00:00 11.8 13 Oeste 23 Oeste 0 959.2 -0.1 88
2020-03-04 06:00:00 12 16 Oeste 22 Oeste 0 959.2 -0.7 90
2020-03-04 05:00:00 12.2 5 Oeste 11 Oeste 0 959 -0.9 89
2020-03-04 04:00:00 12 7 Oeste 14 Oeste 0 959.3 -0.5 90
2020-03-04 03:00:00 12.2 8 Oeste 14 Oeste 0 959.9 0.2 89
2020-03-04 02:00:00 12.9 10 Oeste 18 Oeste 0 959.9 0.2 90
2020-03-04 01:00:00 13.2 13 Oeste 20 Oeste 0 959.8 0.5 89
2020-03-04 00:00:00 13.4 13 Oeste 23 Oeste 0 959.7 0.8 86
2020-03-03 23:00:00 13.5 11 Sudoeste 24 Oeste 0 959.7 1.1 87
2020-03-03 22:00:00 13.7 14 Sudoeste 20 Sudoeste 0 959.3 1.1 83
2020-03-03 21:00:00 14.1 14 Oeste 23 Sudoeste 0 958.9 1.2 81
2020-03-03 20:00:00 14.1 12 Sudoeste 26 Oeste 0 958.6 1.3 81
2020-03-03 19:00:00 14.4 16 Oeste 31 Oeste 0 958.2 1 76
2020-03-03 18:00:00 14.6 17 Oeste 27 Oeste 0 957.7 0.4 76
2020-03-03 17:00:00 14.9 20 Oeste 33 Oeste 0 957.3 -0.4 73
2020-03-03 16:00:00 15.2 25 Oeste 35 Oeste 0 957.2 -1.3 71
2020-03-03 15:00:00 14.4 22 Oeste 39 Sudoeste 0 957.3 -1.7 72
2020-03-03 14:00:00 14.5 25 Oeste 35 Sudoeste 0 957.7 -1.4 69
2020-03-03 13:00:00 13 22 Oeste 37 Oeste 0 958.5 -0.5 69
2020-03-03 12:00:00 12.1 30 Oeste 40 Oeste 0 959 0.8 69
2020-03-03 11:00:00 10 20 Oeste 28 Oeste 0 959.1 1.4 79
2020-03-03 10:00:00 8.7 15 Oeste 26 Oeste 0 959 1.6 84
2020-03-03 09:00:00 7.5 18 Oeste 25 Oeste 0 958.2 0.7 89
2020-03-03 08:00:00 6.7 14 Oeste 23 Oeste 0 957.7 0.6 90
2020-03-03 07:00:00 5.8 16 Oeste 21 Oeste 0 957.4 -0.1 90
2020-03-03 06:00:00 5 11 Oeste 17 Oeste 0 957.5 -0.5 91
2020-03-03 05:00:00 5.6 12 Oeste 16 Oeste 0 957.1 -0.8 88
2020-03-03 04:00:00 5.9 5 Oeste 14 Sudoeste 0 957.5 -0.5 88
2020-03-03 03:00:00 5.3 9 Sudoeste 14 Sudoeste 0 958 0 91
2020-03-03 02:00:00 5.2 5 Oeste 16 Oeste 0 957.9 0.1 87
2020-03-03 01:00:00 6.1 9 Sudoeste 17 Oeste 0 958 1.3 84
2020-03-03 00:00:00 6.4 12 Oeste 15 Oeste 0 958 2.2 83
2020-03-02 23:00:00 7.5 6 Oeste 22 Noroeste 0 957.8 2.7 77
2020-03-02 22:00:00 8 17 Oeste 21 Oeste 0 956.7 2 76
2020-03-02 21:00:00 9 15 Oeste 23 Noroeste 0 955.8 2.4 71
2020-03-02 20:00:00 10 19 Noroeste 31 Oeste 0 955.1 2.4 67
2020-03-02 19:00:00 11.4 23 Noroeste 44 Oeste 0 954.7 2.7 60
2020-03-02 18:00:00 12.9 28 Oeste 46 Oeste 0 953.4 2 57
2020-03-02 17:00:00 13.6 33 Oeste 49 Noroeste 0 952.7 1.6 54
2020-03-02 16:00:00 13.9 35 Oeste 55 Oeste 0 952 1.2 55
2020-03-02 15:00:00 14.1 38 Oeste 56 Oeste 0.1 951.4 0.3 53
2020-03-02 14:00:00 14.9 41 Oeste 59 Oeste 0.2 951.1 0.8 53
2020-03-02 13:00:00 14.4 42 Oeste 59 Oeste 0.3 950.8 1.6 55
2020-03-02 12:00:00 13.7 40 Oeste 56 Oeste 0 951.1 2.5 60
2020-03-02 11:00:00 13.5 37 Oeste 53 Oeste 0 950.3 2.8 71
2020-03-02 10:00:00 13.4 33 Oeste 48 Oeste 0.1 949.2 2.1 81
2020-03-02 09:00:00 13.3 32 Oeste 49 Oeste 0.1 948.6 1.6 86
2020-03-02 08:00:00 13.1 30 Oeste 52 Sudoeste 0 947.5 -0.6 89
2020-03-02 07:00:00 13 32 Sudoeste 47 Sudoeste 0 947.1 -1.7 83
2020-03-02 06:00:00 12.4 30 Oeste 49 Sudoeste 0.1 947 -1.9 83
2020-03-02 05:00:00 11.7 29 Oeste 53 Sudoeste 1.8 948.1 -0.8 90
2020-03-02 04:00:00 12 29 Oeste 48 Oeste 1.1 948.8 -1.4 88
2020-03-02 03:00:00 13.2 26 Sudoeste 41 Sudoeste 0 948.9 -2.1 80
2020-03-02 02:00:00 13.3 27 Sudoeste 39 Sudoeste 0 948.9 -2.2 77
2020-03-02 01:00:00 13.2 26 Sudoeste 42 Sudoeste 0 950.2 -0.9 81
2020-03-02 00:00:00 13.3 27 Sudoeste 46 Sudoeste 0 951 -0.8 80